createdAt,value
2018-06-20T00:04:01.901Z,66.40
2018-06-20T00:06:31.265Z,66.40
2018-06-20T00:08:59.474Z,66.30
2018-06-20T00:11:27.709Z,66.20
2018-06-20T00:13:55.901Z,66.20
2018-06-20T00:16:24.533Z,66.00
2018-06-20T00:18:52.722Z,66.20
2018-06-20T00:21:20.910Z,66.20
2018-06-20T00:23:49.130Z,66.30
2018-06-20T00:26:17.320Z,66.90
2018-06-20T00:28:45.519Z,67.10
2018-06-20T00:31:13.698Z,66.60
2018-06-20T00:33:41.894Z,66.60
2018-06-20T00:36:10.088Z,66.60
2018-06-20T00:38:38.303Z,66.50
2018-06-20T00:41:06.725Z,66.70
2018-06-20T00:43:35.053Z,66.70
2018-06-20T00:46:03.429Z,66.70
2018-06-20T00:48:31.655Z,66.70
2018-06-20T00:50:59.837Z,66.60
2018-06-20T00:53:28.037Z,66.60
2018-06-20T00:56:07.629Z,66.70
2018-06-20T00:58:35.828Z,66.70
2018-06-20T01:01:04.033Z,66.80
2018-06-20T01:03:32.238Z,66.80
2018-06-20T01:06:00.427Z,66.70
2018-06-20T01:08:28.628Z,66.80
2018-06-20T01:10:56.818Z,66.90
2018-06-20T01:13:25.028Z,67.00
2018-06-20T01:15:53.219Z,67.10
2018-06-20T01:18:21.407Z,67.30
2018-06-20T01:20:49.597Z,67.30
2018-06-20T01:23:17.792Z,67.40
2018-06-20T01:25:49.183Z,67.40
2018-06-20T01:28:18.905Z,67.60
2018-06-20T01:30:47.117Z,67.50
2018-06-20T01:33:15.320Z,67.60
2018-06-20T01:35:43.514Z,67.70
2018-06-20T01:38:11.756Z,67.70
2018-06-20T01:40:40.150Z,67.80
2018-06-20T01:43:08.545Z,67.90
2018-06-20T01:45:37.429Z,68.00
2018-06-20T01:48:05.602Z,68.20
2018-06-20T01:50:33.781Z,68.30
2018-06-20T01:53:02.000Z,68.50
2018-06-20T01:55:30.234Z,68.50
2018-06-20T01:57:58.405Z,68.50
2018-06-20T02:00:26.861Z,68.70
2018-06-20T02:02:55.449Z,68.80
2018-06-20T02:05:23.971Z,69.00
2018-06-20T02:07:52.185Z,69.00
2018-06-20T02:12:49.246Z,68.80
2018-06-20T02:15:17.554Z,68.80
2018-06-20T02:17:46.130Z,69.00
2018-06-20T02:20:14.325Z,69.10
2018-06-20T02:22:42.521Z,69.10
2018-06-20T02:25:10.725Z,68.90
2018-06-20T02:27:38.929Z,68.90
2018-06-20T02:30:07.345Z,68.80
2018-06-20T02:32:35.989Z,69.00
2018-06-20T02:35:04.221Z,69.10
2018-06-20T02:37:32.425Z,69.30
2018-06-20T02:40:00.613Z,69.20
2018-06-20T02:42:28.809Z,69.50
2018-06-20T02:44:57.005Z,69.60
2018-06-20T02:47:30.538Z,69.80
2018-06-20T02:49:58.833Z,70.00
2018-06-20T02:52:27.042Z,69.90
2018-06-20T02:54:55.237Z,69.80
2018-06-20T02:57:23.461Z,69.90
2018-06-20T02:59:51.649Z,70.10
2018-06-20T03:02:20.111Z,70.10
2018-06-20T03:04:48.346Z,70.20
2018-06-20T03:07:16.683Z,70.30
2018-06-20T03:09:45.070Z,70.40
2018-06-20T03:12:13.271Z,70.60
2018-06-20T03:14:41.657Z,70.60
2018-06-20T03:17:09.850Z,70.60
2018-06-20T03:22:06.053Z,70.60
2018-06-20T03:24:34.233Z,70.60
2018-06-20T03:27:02.478Z,70.50
2018-06-20T03:29:30.663Z,71.30
2018-06-20T03:31:58.936Z,71.20
2018-06-20T03:34:27.281Z,70.60
2018-06-20T03:36:55.685Z,70.70
2018-06-20T03:39:23.921Z,70.60
2018-06-20T03:41:52.093Z,70.60
2018-06-20T03:46:48.273Z,70.80
2018-06-20T03:49:16.482Z,70.70
2018-06-20T03:51:44.981Z,70.80
2018-06-20T03:54:13.178Z,70.70
2018-06-20T03:56:41.385Z,70.90
2018-06-20T03:59:09.606Z,71.00
2018-06-20T04:01:37.810Z,71.00
2018-06-20T04:04:06.062Z,71.10
2018-06-20T04:06:34.233Z,71.20
2018-06-20T04:09:02.457Z,71.10
2018-06-20T04:11:30.641Z,70.90
2018-06-20T04:13:58.865Z,70.80
2018-06-20T04:16:27.070Z,70.70
2018-06-20T04:18:55.269Z,70.80
2018-06-20T04:21:23.454Z,70.80
2018-06-20T04:23:51.641Z,71.00
2018-06-20T04:26:19.874Z,71.20
2018-06-20T04:28:48.209Z,71.30
2018-06-20T04:31:16.405Z,71.20
2018-06-20T04:33:44.625Z,71.30
2018-06-20T04:36:12.876Z,71.20
2018-06-20T04:38:41.120Z,71.10
2018-06-20T04:43:37.295Z,71.10
2018-06-20T04:46:05.519Z,71.10
2018-06-20T04:48:33.742Z,71.00
2018-06-20T04:51:01.975Z,71.00
2018-06-20T04:53:30.132Z,71.10
2018-06-20T04:55:58.320Z,70.90
2018-06-20T04:58:26.512Z,70.70
2018-06-20T05:00:54.745Z,70.60
2018-06-20T05:03:22.946Z,70.60
2018-06-20T05:05:51.145Z,70.30
2018-06-20T05:10:47.334Z,70.60
2018-06-20T05:13:15.569Z,70.60
2018-06-20T05:15:43.757Z,70.60
2018-06-20T05:18:11.943Z,70.50
2018-06-20T05:20:40.408Z,70.60
2018-06-20T05:23:08.649Z,70.50
2018-06-20T05:25:36.901Z,70.30
2018-06-20T05:28:05.380Z,70.40
2018-06-20T05:30:33.580Z,70.30
2018-06-20T05:33:01.781Z,70.40
2018-06-20T05:35:30.006Z,70.30
2018-06-20T05:37:58.236Z,70.30
2018-06-20T05:40:26.414Z,70.30
2018-06-20T05:42:54.608Z,70.20
2018-06-20T05:45:22.789Z,70.00
2018-06-20T05:48:09.511Z,69.90
2018-06-20T05:50:38.253Z,69.70
2018-06-20T05:53:06.519Z,69.80
2018-06-20T05:55:34.648Z,69.80
2018-06-20T05:58:02.869Z,69.60
2018-06-20T06:00:31.073Z,69.50
2018-06-20T06:02:59.280Z,69.50
2018-06-20T06:05:27.464Z,69.40
2018-06-20T06:07:55.718Z,69.20
2018-06-20T06:10:23.942Z,69.00
2018-06-20T06:12:52.150Z,69.90
2018-06-20T06:15:20.393Z,69.10
2018-06-20T06:17:48.617Z,69.00
2018-06-20T06:20:16.784Z,69.00
2018-06-20T06:22:45.230Z,68.90
2018-06-20T06:25:13.447Z,68.80
2018-06-20T06:27:41.659Z,68.50
2018-06-20T06:30:09.849Z,68.30
2018-06-20T06:32:38.424Z,68.10
2018-06-20T06:35:06.735Z,68.00
2018-06-20T06:37:34.944Z,67.90
2018-06-20T06:40:03.129Z,67.90
2018-06-20T06:42:31.330Z,68.50
2018-06-20T06:44:59.515Z,67.90
2018-06-20T06:47:27.758Z,67.90
2018-06-20T06:49:56.017Z,67.80
2018-06-20T06:52:24.165Z,67.90
2018-06-20T06:54:52.354Z,68.10
2018-06-20T06:57:20.581Z,68.10
2018-06-20T06:59:48.809Z,68.10
2018-06-20T07:02:17.007Z,68.20
2018-06-20T07:04:45.233Z,68.20
2018-06-20T07:07:13.425Z,68.20
2018-06-20T07:09:41.646Z,68.10
2018-06-20T07:12:10.049Z,67.90
2018-06-20T07:14:38.258Z,68.00
2018-06-20T07:19:34.446Z,68.00
2018-06-20T07:22:02.938Z,67.90
2018-06-20T07:24:31.343Z,67.80
2018-06-20T07:26:59.549Z,67.70
2018-06-20T07:29:27.844Z,67.50
2018-06-20T07:31:55.985Z,67.30
2018-06-20T07:34:24.203Z,67.10
2018-06-20T07:36:52.418Z,67.20
2018-06-20T07:39:20.638Z,67.00
2018-06-20T07:41:48.801Z,67.10
2018-06-20T07:44:17.041Z,66.90
2018-06-20T07:46:45.258Z,66.70
2018-06-20T07:49:13.457Z,66.60
2018-06-20T07:51:41.653Z,66.40
2018-06-20T07:54:09.870Z,66.10
2018-06-20T07:56:38.109Z,65.80
2018-06-20T07:59:10.528Z,65.70
2018-06-20T08:01:55.797Z,65.80
2018-06-20T08:04:29.731Z,65.60
2018-06-20T08:07:03.634Z,65.40
2018-06-20T08:09:37.153Z,65.20
2018-06-20T08:14:16.213Z,65.00
2018-06-20T08:16:49.729Z,64.60
2018-06-20T08:19:23.396Z,64.00
2018-06-20T08:21:51.617Z,63.80
2018-06-20T08:24:19.828Z,63.50
2018-06-20T08:26:48.027Z,63.00
2018-06-20T08:29:16.501Z,62.60
2018-06-20T08:31:44.689Z,62.50
2018-06-20T08:34:12.946Z,62.40
2018-06-20T08:36:41.157Z,62.20
2018-06-20T08:39:10.292Z,61.90
2018-06-20T08:41:38.494Z,61.60
2018-06-20T08:44:06.740Z,61.30
2018-06-20T08:46:34.993Z,61.10
2018-06-20T08:49:03.293Z,60.80
2018-06-20T08:53:59.493Z,60.50
2018-06-20T08:56:27.739Z,60.40
2018-06-20T08:58:55.961Z,60.30
2018-06-20T09:01:24.167Z,60.10
2018-06-20T09:03:56.589Z,60.00
2018-06-20T09:06:29.988Z,60.00
2018-06-20T09:09:03.502Z,59.80
2018-06-20T09:13:43.693Z,59.60
2018-06-20T09:16:17.437Z,59.40
2018-06-20T09:18:51.053Z,59.30
2018-06-20T09:21:19.502Z,59.00
2018-06-20T09:23:47.688Z,58.70
2018-06-20T09:26:15.922Z,58.50
2018-06-20T09:28:44.117Z,58.30
2018-06-20T09:31:12.317Z,58.20
2018-06-20T09:33:40.521Z,58.40
2018-06-20T09:36:09.036Z,58.40
2018-06-20T09:38:37.262Z,58.20
2018-06-20T09:41:05.429Z,58.10
2018-06-20T09:43:33.624Z,58.00
2018-06-20T09:46:01.862Z,57.80
2018-06-20T09:48:30.039Z,57.80
2018-06-20T09:50:59.212Z,57.60
2018-06-20T09:53:27.884Z,57.40
2018-06-20T09:55:56.076Z,57.10
2018-06-20T09:58:24.278Z,57.10
2018-06-20T10:00:57.930Z,57.10
2018-06-20T10:03:31.553Z,57.00
2018-06-20T10:06:05.638Z,57.00
2018-06-20T10:08:39.256Z,57.50
2018-06-20T10:11:12.825Z,56.80
2018-06-20T10:13:44.004Z,56.80
2018-06-20T10:16:12.195Z,56.60
2018-06-20T10:18:40.386Z,56.70
2018-06-20T10:21:08.658Z,56.60
2018-06-20T10:23:37.374Z,56.20
2018-06-20T10:26:05.590Z,55.90
2018-06-20T10:28:33.809Z,55.70
2018-06-20T10:31:01.997Z,55.70
2018-06-20T10:33:30.221Z,55.50
2018-06-20T10:35:58.453Z,55.50
2018-06-20T10:38:26.645Z,55.60
2018-06-20T10:40:55.054Z,55.40
2018-06-20T10:43:23.247Z,55.20
2018-06-20T10:45:56.891Z,55.00
2018-06-20T10:48:25.338Z,55.00
2018-06-20T10:50:53.536Z,55.00
2018-06-20T10:53:21.762Z,55.00
2018-06-20T10:55:50.002Z,55.10
2018-06-20T10:58:23.662Z,54.90
2018-06-20T11:00:57.268Z,54.90
2018-06-20T11:03:30.945Z,55.00
2018-06-20T11:06:04.563Z,55.00
2018-06-20T11:08:38.205Z,55.00
2018-06-20T11:11:11.857Z,54.80
2018-06-20T11:13:40.214Z,54.60
2018-06-20T11:16:08.406Z,54.40
2018-06-20T11:18:39.536Z,54.30
2018-06-20T11:21:07.717Z,54.20
2018-06-20T11:23:36.047Z,54.10
2018-06-20T11:26:04.428Z,54.10
2018-06-20T11:28:32.613Z,54.20
2018-06-20T11:31:00.888Z,54.20
2018-06-20T11:33:29.029Z,54.20
2018-06-20T11:35:57.228Z,54.30
2018-06-20T11:38:25.458Z,54.20
2018-06-20T11:40:53.640Z,54.20
2018-06-20T11:43:21.854Z,54.20
2018-06-20T11:45:55.350Z,54.20
2018-06-20T11:48:23.545Z,54.20
2018-06-20T11:50:51.721Z,54.20
2018-06-20T11:53:19.946Z,54.20
2018-06-20T11:55:48.165Z,54.20
2018-06-20T11:58:21.856Z,54.20
2018-06-20T12:00:55.861Z,54.00
2018-06-20T12:03:29.488Z,54.10
2018-06-20T12:06:03.162Z,54.60
2018-06-20T12:08:47.441Z,53.80
2018-06-20T12:11:21.280Z,53.50
2018-06-20T12:13:54.969Z,53.90
2018-06-20T12:16:25.188Z,54.30
2018-06-20T12:18:59.067Z,54.50
2018-06-20T12:21:33.011Z,54.30
2018-06-20T12:24:07.030Z,54.10
2018-06-20T12:26:40.958Z,53.90
2018-06-20T12:29:14.875Z,53.80
2018-06-20T12:31:48.581Z,53.80
2018-06-20T12:34:22.321Z,53.70
2018-06-20T12:36:56.221Z,53.90
2018-06-20T12:39:23.996Z,53.80
2018-06-20T12:41:58.069Z,53.50
2018-06-20T12:44:32.134Z,53.30
2018-06-20T12:47:02.219Z,53.20
2018-06-20T12:49:33.792Z,53.10
2018-06-20T12:52:01.994Z,53.00
2018-06-20T12:54:30.718Z,52.90
2018-06-20T12:56:58.957Z,52.90
2018-06-20T12:59:27.326Z,52.70
2018-06-20T13:01:55.590Z,53.20
2018-06-20T13:04:24.001Z,52.50
2018-06-20T13:06:52.324Z,52.40
2018-06-20T13:09:20.739Z,52.60
2018-06-20T13:11:49.283Z,51.90
2018-06-20T13:14:17.669Z,52.00
2018-06-20T13:16:46.154Z,52.00
2018-06-20T13:19:14.649Z,51.90
2018-06-20T13:21:43.022Z,51.70
2018-06-20T13:24:12.382Z,51.60
2018-06-20T13:26:40.708Z,51.40
2018-06-20T13:29:09.269Z,51.20
2018-06-20T13:31:43.021Z,51.00
2018-06-20T13:34:16.609Z,50.60
2018-06-20T13:36:50.317Z,50.40
2018-06-20T13:39:24.083Z,50.20
2018-06-20T13:41:57.654Z,50.00
2018-06-20T13:44:27.676Z,49.90
2018-06-20T13:47:01.253Z,49.40
2018-06-20T13:49:29.569Z,49.90
2018-06-20T13:51:57.911Z,49.80
2018-06-20T13:54:26.301Z,49.90
2018-06-20T13:56:54.741Z,49.90
2018-06-20T13:59:23.485Z,49.90
2018-06-20T14:01:51.773Z,50.00
2018-06-20T14:04:19.978Z,49.90
2018-06-20T14:06:48.183Z,49.90
2018-06-20T14:09:16.358Z,49.80
2018-06-20T14:11:44.554Z,49.60
2018-06-20T14:14:12.729Z,49.60
2018-06-20T14:19:08.956Z,49.50
2018-06-20T14:21:41.159Z,49.60
2018-06-20T14:24:10.289Z,49.40
2018-06-20T14:26:39.678Z,49.30
2018-06-20T14:29:08.664Z,49.20
2018-06-20T14:31:42.335Z,49.20
2018-06-20T14:34:16.085Z,49.10
2018-06-20T14:36:49.731Z,48.70
2018-06-20T14:39:23.355Z,48.20
2018-06-20T14:41:56.816Z,48.30
2018-06-20T14:44:25.150Z,48.40
2018-06-20T14:46:53.365Z,47.80
2018-06-20T14:49:21.549Z,47.20
2018-06-20T14:51:49.736Z,46.10
2018-06-20T14:56:45.921Z,45.50
2018-06-20T14:59:14.150Z,46.30
2018-06-20T15:01:42.334Z,46.30
2018-06-20T15:04:10.526Z,46.50
2018-06-20T15:06:38.714Z,46.60
2018-06-20T15:09:07.786Z,46.40
2018-06-20T15:11:36.169Z,46.10
2018-06-20T15:14:04.377Z,46.00
2018-06-20T15:16:38.021Z,45.90
2018-06-20T15:19:06.436Z,45.70
2018-06-20T15:21:34.693Z,45.60
2018-06-20T15:24:02.869Z,45.90
2018-06-20T15:26:36.557Z,45.10
2018-06-20T15:29:10.110Z,45.20
2018-06-20T15:31:43.783Z,45.30
2018-06-20T15:36:18.925Z,45.20
2018-06-20T15:38:47.249Z,44.90
2018-06-20T15:41:15.757Z,45.00
2018-06-20T15:43:44.065Z,44.90
2018-06-20T15:46:12.317Z,44.60
2018-06-20T15:48:40.625Z,45.00
2018-06-20T15:51:09.304Z,44.20
2018-06-20T15:53:37.725Z,43.60
2018-06-20T15:56:06.136Z,43.10
2018-06-20T15:58:34.589Z,42.70
2018-06-20T16:01:03.009Z,42.50
2018-06-20T16:03:31.292Z,42.10
2018-06-20T16:05:59.721Z,41.90
2018-06-20T16:08:28.046Z,41.30
2018-06-20T16:10:56.236Z,40.60
2018-06-20T16:13:24.569Z,40.30
2018-06-20T16:15:52.798Z,40.00
2018-06-20T16:18:21.227Z,39.90
2018-06-20T16:20:55.029Z,40.00
2018-06-20T16:23:28.634Z,39.80
2018-06-20T16:26:02.189Z,39.60
2018-06-20T16:28:35.609Z,39.50
2018-06-20T16:31:03.857Z,39.40
2018-06-20T16:33:32.077Z,39.20
2018-06-20T16:36:00.437Z,39.10
2018-06-20T16:38:28.945Z,39.20
2018-06-20T16:40:57.344Z,39.60
2018-06-20T16:43:26.033Z,40.00
2018-06-20T16:45:54.773Z,40.10
2018-06-20T16:48:23.144Z,40.10
2018-06-20T16:50:51.859Z,40.00
2018-06-20T16:53:20.774Z,39.90
2018-06-20T16:55:49.562Z,40.30
2018-06-20T16:58:18.491Z,39.60
2018-06-20T17:00:47.788Z,39.60
2018-06-20T17:03:16.509Z,39.60
2018-06-20T17:05:45.052Z,39.60
2018-06-20T17:08:13.315Z,39.70
2018-06-20T17:10:41.590Z,40.40
2018-06-20T17:13:15.149Z,40.10
2018-06-20T17:15:48.780Z,40.50
2018-06-20T17:18:22.325Z,40.70
2018-06-20T17:20:55.965Z,40.90
2018-06-20T17:23:29.594Z,41.00
2018-06-20T17:25:57.769Z,41.20
2018-06-20T17:28:25.969Z,41.30
2018-06-20T17:30:54.153Z,41.50
2018-06-20T17:33:22.501Z,41.60
2018-06-20T17:35:50.679Z,41.60
2018-06-20T17:38:18.907Z,41.70
2018-06-20T17:40:47.051Z,41.80
2018-06-20T17:43:15.265Z,41.80
2018-06-20T17:45:43.449Z,41.80
2018-06-20T17:48:11.629Z,41.90
2018-06-20T17:50:39.807Z,42.40
2018-06-20T17:53:08.013Z,41.80
2018-06-20T17:55:36.394Z,41.90
2018-06-20T17:58:04.891Z,42.00
2018-06-20T18:00:37.321Z,42.00
2018-06-20T18:03:05.627Z,41.90
2018-06-20T18:05:39.141Z,42.00
2018-06-20T18:10:17.323Z,42.10
2018-06-20T18:12:50.868Z,42.30
2018-06-20T18:15:24.502Z,42.90
2018-06-20T18:17:52.690Z,43.50
2018-06-20T18:20:21.017Z,44.00
2018-06-20T18:22:49.208Z,45.00
2018-06-20T18:25:17.389Z,44.60
2018-06-20T18:27:45.567Z,44.80
2018-06-20T18:30:13.773Z,45.00
2018-06-20T18:32:42.174Z,45.10
2018-06-20T18:35:10.344Z,45.30
2018-06-20T18:37:38.553Z,45.40
2018-06-20T18:40:08.179Z,45.50
2018-06-20T18:42:36.629Z,45.60
2018-06-20T18:45:05.005Z,45.70
2018-06-20T18:47:38.453Z,45.90
2018-06-20T18:50:06.994Z,46.00
2018-06-20T18:52:36.347Z,46.00
2018-06-20T18:55:04.596Z,46.10
2018-06-20T18:57:37.996Z,46.20
2018-06-20T19:00:12.410Z,46.40
2018-06-20T19:05:19.637Z,46.50
2018-06-20T19:10:21.173Z,46.50
2018-06-20T19:12:49.374Z,46.50
2018-06-20T19:15:17.587Z,46.50
2018-06-20T19:17:45.769Z,46.80
2018-06-20T19:20:13.941Z,46.80
2018-06-20T19:22:42.131Z,46.80
2018-06-20T19:25:10.310Z,46.90
2018-06-20T19:27:38.518Z,46.90
2018-06-20T19:30:06.729Z,46.90
2018-06-20T19:32:34.912Z,46.80
2018-06-20T19:35:03.095Z,46.90
2018-06-20T19:37:31.552Z,46.90
2018-06-20T19:39:59.769Z,46.80
2018-06-20T19:42:27.940Z,46.80
2018-06-20T19:44:56.164Z,46.90
2018-06-20T19:47:24.446Z,47.00
2018-06-20T19:49:52.672Z,47.00
2018-06-20T19:52:20.853Z,47.00
2018-06-20T19:54:49.038Z,47.10
2018-06-20T19:57:17.246Z,47.10
2018-06-20T19:59:45.410Z,47.20
2018-06-20T20:02:13.618Z,47.40
2018-06-20T20:07:09.746Z,48.00
2018-06-20T20:09:37.925Z,48.30
2018-06-20T20:12:06.106Z,48.80
2018-06-20T20:14:34.313Z,49.00
2018-06-20T20:17:02.488Z,49.30
2018-06-20T20:19:30.674Z,49.50
2018-06-20T20:21:59.058Z,49.80
2018-06-20T20:24:27.479Z,50.70
2018-06-20T20:26:55.705Z,50.40
2018-06-20T20:29:23.894Z,50.60
2018-06-20T20:31:52.290Z,50.90
2018-06-20T20:34:20.647Z,51.00
2018-06-20T20:36:48.855Z,51.30
2018-06-20T20:39:17.328Z,51.40
2018-06-20T20:41:45.514Z,51.60
2018-06-20T20:44:13.692Z,51.70
2018-06-20T20:46:41.877Z,51.90
2018-06-20T20:49:10.165Z,52.10
2018-06-20T20:51:38.385Z,52.20
2018-06-20T20:54:06.541Z,52.30
2018-06-20T20:56:34.726Z,52.50
2018-06-20T20:59:02.932Z,53.20
2018-06-20T21:01:31.194Z,52.70
2018-06-20T21:03:59.373Z,52.80
2018-06-20T21:06:27.544Z,53.00
2018-06-20T21:08:55.736Z,53.20
2018-06-20T21:11:23.919Z,53.30
2018-06-20T21:13:52.165Z,53.40
2018-06-20T21:16:20.293Z,53.50
2018-06-20T21:21:16.428Z,53.70
2018-06-20T21:23:44.632Z,53.70
2018-06-20T21:26:12.826Z,53.90
2018-06-20T21:28:41.009Z,54.00
2018-06-20T21:31:09.182Z,54.10
2018-06-20T21:33:37.438Z,54.20
2018-06-20T21:36:05.776Z,54.30
2018-06-20T21:41:02.089Z,54.60
2018-06-20T21:43:30.413Z,54.70
2018-06-20T21:45:58.599Z,54.90
2018-06-20T21:48:26.816Z,55.00
2018-06-20T21:50:54.998Z,55.10
2018-06-20T21:53:23.189Z,55.10
2018-06-20T21:55:51.368Z,55.20
2018-06-20T21:58:19.561Z,55.40
2018-06-20T22:00:47.957Z,55.40
2018-06-20T22:03:16.152Z,55.60
2018-06-20T22:05:47.205Z,55.70
2018-06-20T22:08:15.406Z,55.90
2018-06-20T22:10:43.615Z,56.00
2018-06-20T22:13:11.797Z,56.10
2018-06-20T22:15:40.008Z,56.30
2018-06-20T22:18:08.186Z,56.30
2018-06-20T22:20:36.379Z,56.60
2018-06-20T22:23:04.566Z,56.70
2018-06-20T22:25:33.120Z,56.80
2018-06-20T22:28:01.552Z,57.00
2018-06-20T22:30:29.757Z,57.10
2018-06-20T22:32:57.925Z,57.30
2018-06-20T22:35:26.115Z,57.30
2018-06-20T22:37:54.324Z,57.40
2018-06-20T22:40:22.599Z,57.40
2018-06-20T22:42:50.749Z,57.50
2018-06-20T22:45:18.942Z,57.70
2018-06-20T22:47:47.112Z,57.70
2018-06-20T22:50:15.325Z,57.80
2018-06-20T22:52:43.500Z,57.80
2018-06-20T22:55:11.682Z,58.00
2018-06-20T22:57:39.875Z,58.10
2018-06-20T23:00:08.070Z,58.10
2018-06-20T23:02:36.305Z,58.20
2018-06-20T23:05:04.734Z,58.30
2018-06-20T23:07:32.901Z,58.40
2018-06-20T23:10:01.077Z,58.50
2018-06-20T23:12:29.288Z,58.70
2018-06-20T23:14:57.530Z,58.30
2018-06-20T23:17:25.724Z,58.70
2018-06-20T23:19:53.898Z,58.60
2018-06-20T23:22:22.106Z,58.70
2018-06-20T23:24:50.319Z,58.80
2018-06-20T23:27:18.514Z,58.90
2018-06-20T23:29:46.685Z,59.00
2018-06-20T23:32:14.887Z,59.10
2018-06-20T23:34:43.071Z,59.00
2018-06-20T23:37:11.577Z,59.10
2018-06-20T23:39:39.793Z,59.20
2018-06-20T23:42:08.009Z,59.20
2018-06-20T23:44:36.244Z,59.30
2018-06-20T23:47:04.470Z,59.40
2018-06-20T23:49:32.673Z,59.50
2018-06-20T23:52:01.081Z,59.60
2018-06-20T23:54:29.253Z,59.70
2018-06-20T23:56:57.452Z,59.80
2018-06-20T23:59:25.642Z,59.80
